sensor_id;sensor_type;location;lat;lon;timestamp;P1;durP1;ratioP1;P2;durP2;ratioP2
70667;SDS011;58242;51.250;-1.118;2024-03-08T00:00:10;24.38;;;17.33;;
70667;SDS011;58242;51.250;-1.118;2024-03-08T00:02:38;23.98;;;17.33;;
70667;SDS011;58242;51.250;-1.118;2024-03-08T00:05:04;23.52;;;16.98;;
70667;SDS011;58242;51.250;-1.118;2024-03-08T00:07:39;22.42;;;16.20;;
70667;SDS011;58242;51.250;-1.118;2024-03-08T00:10:06;25.17;;;17.33;;
70667;SDS011;58242;51.250;-1.118;2024-03-08T00:12:36;23.35;;;16.98;;
70667;SDS011;58242;51.250;-1.118;2024-03-08T00:15:01;26.45;;;19.35;;
70667;SDS011;58242;51.250;-1.118;2024-03-08T00:17:27;26.70;;;19.45;;
70667;SDS011;58242;51.250;-1.118;2024-03-08T00:19:52;26.40;;;19.98;;
70667;SDS011;58242;51.250;-1.118;2024-03-08T00:22:18;28.90;;;21.08;;
70667;SDS011;58242;51.250;-1.118;2024-03-08T00:24:43;26.38;;;18.60;;
70667;SDS011;58242;51.250;-1.118;2024-03-08T00:27:09;25.40;;;18.13;;
70667;SDS011;58242;51.250;-1.118;2024-03-08T00:29:35;24.30;;;16.35;;
70667;SDS011;58242;51.250;-1.118;2024-03-08T00:32:00;20.70;;;15.60;;
70667;SDS011;58242;51.250;-1.118;2024-03-08T00:34:26;26.33;;;18.45;;
70667;SDS011;58242;51.250;-1.118;2024-03-08T00:36:51;19.52;;;15.00;;
70667;SDS011;58242;51.250;-1.118;2024-03-08T00:39:17;27.33;;;19.20;;
70667;SDS011;58242;51.250;-1.118;2024-03-08T00:41:44;25.13;;;18.35;;
70667;SDS011;58242;51.250;-1.118;2024-03-08T00:44:10;23.50;;;17.23;;
70667;SDS011;58242;51.250;-1.118;2024-03-08T00:46:36;26.20;;;19.05;;
70667;SDS011;58242;51.250;-1.118;2024-03-08T00:49:01;27.27;;;18.85;;
70667;SDS011;58242;51.250;-1.118;2024-03-08T00:51:26;28.30;;;18.73;;
70667;SDS011;58242;51.250;-1.118;2024-03-08T00:53:52;27.15;;;18.30;;
70667;SDS011;58242;51.250;-1.118;2024-03-08T00:56:17;30.15;;;19.73;;
70667;SDS011;58242;51.250;-1.118;2024-03-08T00:58:42;26.02;;;18.73;;
70667;SDS011;58242;51.250;-1.118;2024-03-08T01:01:07;28.35;;;17.73;;
70667;SDS011;58242;51.250;-1.118;2024-03-08T01:03:34;23.95;;;16.40;;
70667;SDS011;58242;51.250;-1.118;2024-03-08T01:06:00;22.83;;;16.70;;
70667;SDS011;58242;51.250;-1.118;2024-03-08T01:08:27;24.20;;;16.55;;
70667;SDS011;58242;51.250;-1.118;2024-03-08T01:10:53;21.48;;;15.20;;
70667;SDS011;58242;51.250;-1.118;2024-03-08T01:13:18;25.30;;;16.40;;
70667;SDS011;58242;51.250;-1.118;2024-03-08T01:15:44;23.13;;;15.63;;
70667;SDS011;58242;51.250;-1.118;2024-03-08T01:18:10;18.85;;;13.30;;
70667;SDS011;58242;51.250;-1.118;2024-03-08T01:20:36;22.33;;;15.48;;
70667;SDS011;58242;51.250;-1.118;2024-03-08T01:23:01;23.15;;;15.82;;
70667;SDS011;58242;51.250;-1.118;2024-03-08T01:25:27;22.70;;;15.35;;
70667;SDS011;58242;51.250;-1.118;2024-03-08T01:27:52;21.65;;;15.02;;
70667;SDS011;58242;51.250;-1.118;2024-03-08T01:30:18;23.08;;;15.77;;
70667;SDS011;58242;51.250;-1.118;2024-03-08T01:32:44;20.35;;;14.27;;
70667;SDS011;58242;51.250;-1.118;2024-03-08T01:35:09;20.13;;;13.15;;
70667;SDS011;58242;51.250;-1.118;2024-03-08T01:37:35;20.27;;;13.35;;
70667;SDS011;58242;51.250;-1.118;2024-03-08T01:40:00;16.55;;;11.35;;
70667;SDS011;58242;51.250;-1.118;2024-03-08T01:42:26;17.75;;;12.45;;
70667;SDS011;58242;51.250;-1.118;2024-03-08T01:44:51;17.25;;;12.23;;
70667;SDS011;58242;51.250;-1.118;2024-03-08T01:47:17;14.48;;;11.27;;
70667;SDS011;58242;51.250;-1.118;2024-03-08T01:49:43;14.60;;;11.00;;
70667;SDS011;58242;51.250;-1.118;2024-03-08T01:52:08;16.20;;;12.10;;
70667;SDS011;58242;51.250;-1.118;2024-03-08T01:54:34;13.93;;;11.20;;
70667;SDS011;58242;51.250;-1.118;2024-03-08T01:57:00;16.27;;;12.38;;
70667;SDS011;58242;51.250;-1.118;2024-03-08T01:59:26;16.45;;;12.30;;
70667;SDS011;58242;51.250;-1.118;2024-03-08T02:01:53;17.48;;;12.48;;
70667;SDS011;58242;51.250;-1.118;2024-03-08T02:04:20;16.17;;;12.23;;
70667;SDS011;58242;51.250;-1.118;2024-03-08T02:06:46;17.23;;;13.05;;
70667;SDS011;58242;51.250;-1.118;2024-03-08T02:09:13;18.70;;;14.00;;
70667;SDS011;58242;51.250;-1.118;2024-03-08T02:11:39;18.65;;;13.77;;
70667;SDS011;58242;51.250;-1.118;2024-03-08T02:14:06;24.02;;;17.58;;
70667;SDS011;58242;51.250;-1.118;2024-03-08T02:16:31;27.98;;;18.95;;
70667;SDS011;58242;51.250;-1.118;2024-03-08T02:18:57;27.00;;;19.85;;
70667;SDS011;58242;51.250;-1.118;2024-03-08T02:21:23;24.88;;;18.05;;
70667;SDS011;58242;51.250;-1.118;2024-03-08T02:23:49;23.13;;;17.27;;
70667;SDS011;58242;51.250;-1.118;2024-03-08T02:26:17;26.63;;;19.05;;
70667;SDS011;58242;51.250;-1.118;2024-03-08T02:28:42;28.77;;;18.80;;
70667;SDS011;58242;51.250;-1.118;2024-03-08T02:31:09;24.00;;;17.95;;
70667;SDS011;58242;51.250;-1.118;2024-03-08T02:33:34;25.27;;;18.48;;
70667;SDS011;58242;51.250;-1.118;2024-03-08T02:36:00;28.02;;;20.50;;
70667;SDS011;58242;51.250;-1.118;2024-03-08T02:38:26;29.92;;;21.13;;
70667;SDS011;58242;51.250;-1.118;2024-03-08T02:40:51;29.92;;;22.35;;
70667;SDS011;58242;51.250;-1.118;2024-03-08T02:43:18;34.33;;;24.17;;
70667;SDS011;58242;51.250;-1.118;2024-03-08T02:45:44;34.72;;;25.10;;
70667;SDS011;58242;51.250;-1.118;2024-03-08T02:48:10;36.08;;;25.70;;
70667;SDS011;58242;51.250;-1.118;2024-03-08T02:50:36;32.83;;;24.42;;
70667;SDS011;58242;51.250;-1.118;2024-03-08T02:53:02;35.30;;;24.45;;
70667;SDS011;58242;51.250;-1.118;2024-03-08T02:55:28;33.03;;;23.48;;
70667;SDS011;58242;51.250;-1.118;2024-03-08T02:57:54;31.50;;;21.15;;
70667;SDS011;58242;51.250;-1.118;2024-03-08T03:00:20;26.58;;;19.45;;
70667;SDS011;58242;51.250;-1.118;2024-03-08T03:02:48;25.75;;;18.95;;
70667;SDS011;58242;51.250;-1.118;2024-03-08T03:05:18;30.90;;;21.35;;
70667;SDS011;58242;51.250;-1.118;2024-03-08T03:07:44;27.67;;;20.77;;
70667;SDS011;58242;51.250;-1.118;2024-03-08T03:10:10;28.48;;;20.30;;
70667;SDS011;58242;51.250;-1.118;2024-03-08T03:12:37;29.50;;;19.13;;
70667;SDS011;58242;51.250;-1.118;2024-03-08T03:15:03;21.83;;;15.55;;
70667;SDS011;58242;51.250;-1.118;2024-03-08T03:17:29;20.40;;;15.68;;
70667;SDS011;58242;51.250;-1.118;2024-03-08T03:19:55;21.48;;;16.52;;
70667;SDS011;58242;51.250;-1.118;2024-03-08T03:22:20;23.98;;;16.42;;
70667;SDS011;58242;51.250;-1.118;2024-03-08T03:24:46;19.55;;;14.65;;
70667;SDS011;58242;51.250;-1.118;2024-03-08T03:27:12;22.83;;;15.25;;
70667;SDS011;58242;51.250;-1.118;2024-03-08T03:29:38;19.10;;;14.18;;
70667;SDS011;58242;51.250;-1.118;2024-03-08T03:32:05;17.85;;;13.30;;
70667;SDS011;58242;51.250;-1.118;2024-03-08T03:34:32;18.67;;;12.95;;
70667;SDS011;58242;51.250;-1.118;2024-03-08T03:37:00;17.50;;;13.33;;
70667;SDS011;58242;51.250;-1.118;2024-03-08T03:39:27;18.55;;;13.20;;
70667;SDS011;58242;51.250;-1.118;2024-03-08T03:41:56;20.85;;;14.70;;
70667;SDS011;58242;51.250;-1.118;2024-03-08T03:44:21;17.90;;;13.35;;
70667;SDS011;58242;51.250;-1.118;2024-03-08T03:46:48;19.10;;;14.25;;
70667;SDS011;58242;51.250;-1.118;2024-03-08T03:49:15;17.05;;;13.35;;
70667;SDS011;58242;51.250;-1.118;2024-03-08T03:51:41;16.63;;;12.88;;
70667;SDS011;58242;51.250;-1.118;2024-03-08T03:54:06;19.25;;;13.63;;
70667;SDS011;58242;51.250;-1.118;2024-03-08T03:56:32;18.00;;;13.75;;
70667;SDS011;58242;51.250;-1.118;2024-03-08T03:58:57;20.20;;;13.57;;
70667;SDS011;58242;51.250;-1.118;2024-03-08T04:01:23;16.50;;;12.68;;
70667;SDS011;58242;51.250;-1.118;2024-03-08T04:03:49;16.95;;;12.65;;
70667;SDS011;58242;51.250;-1.118;2024-03-08T04:06:14;19.65;;;14.30;;
70667;SDS011;58242;51.250;-1.118;2024-03-08T04:08:40;19.15;;;14.23;;
70667;SDS011;58242;51.250;-1.118;2024-03-08T04:11:06;19.90;;;13.80;;
70667;SDS011;58242;51.250;-1.118;2024-03-08T04:13:32;18.00;;;14.25;;
70667;SDS011;58242;51.250;-1.118;2024-03-08T04:15:57;19.70;;;14.05;;
70667;SDS011;58242;51.250;-1.118;2024-03-08T04:18:23;23.48;;;16.63;;
70667;SDS011;58242;51.250;-1.118;2024-03-08T04:20:48;24.83;;;17.50;;
70667;SDS011;58242;51.250;-1.118;2024-03-08T04:23:15;29.42;;;18.70;;
70667;SDS011;58242;51.250;-1.118;2024-03-08T04:25:41;24.50;;;17.35;;
70667;SDS011;58242;51.250;-1.118;2024-03-08T04:28:07;18.88;;;13.63;;
70667;SDS011;58242;51.250;-1.118;2024-03-08T04:30:36;22.70;;;16.52;;
70667;SDS011;58242;51.250;-1.118;2024-03-08T04:33:02;25.92;;;18.20;;
70667;SDS011;58242;51.250;-1.118;2024-03-08T04:35:28;29.05;;;19.98;;
70667;SDS011;58242;51.250;-1.118;2024-03-08T04:37:54;24.30;;;17.35;;
70667;SDS011;58242;51.250;-1.118;2024-03-08T04:40:19;26.23;;;18.52;;
70667;SDS011;58242;51.250;-1.118;2024-03-08T04:42:44;24.27;;;18.10;;
70667;SDS011;58242;51.250;-1.118;2024-03-08T04:45:09;25.42;;;18.02;;
70667;SDS011;58242;51.250;-1.118;2024-03-08T04:47:38;19.35;;;15.85;;
70667;SDS011;58242;51.250;-1.118;2024-03-08T04:50:04;26.08;;;17.65;;
70667;SDS011;58242;51.250;-1.118;2024-03-08T04:52:30;21.60;;;15.93;;
70667;SDS011;58242;51.250;-1.118;2024-03-08T04:54:55;22.83;;;16.63;;
70667;SDS011;58242;51.250;-1.118;2024-03-08T04:57:21;22.00;;;14.77;;
70667;SDS011;58242;51.250;-1.118;2024-03-08T04:59:46;21.75;;;15.57;;
70667;SDS011;58242;51.250;-1.118;2024-03-08T05:02:12;22.95;;;17.15;;
70667;SDS011;58242;51.250;-1.118;2024-03-08T05:04:37;27.50;;;18.05;;
70667;SDS011;58242;51.250;-1.118;2024-03-08T05:07:02;24.55;;;16.75;;
70667;SDS011;58242;51.250;-1.118;2024-03-08T05:09:29;23.48;;;17.30;;
70667;SDS011;58242;51.250;-1.118;2024-03-08T05:11:56;24.70;;;18.17;;
70667;SDS011;58242;51.250;-1.118;2024-03-08T05:14:24;28.47;;;19.93;;
70667;SDS011;58242;51.250;-1.118;2024-03-08T05:16:50;20.50;;;15.85;;
70667;SDS011;58242;51.250;-1.118;2024-03-08T05:19:16;22.85;;;16.65;;
70667;SDS011;58242;51.250;-1.118;2024-03-08T05:21:51;20.25;;;15.77;;
70667;SDS011;58242;51.250;-1.118;2024-03-08T05:24:16;19.52;;;15.43;;
70667;SDS011;58242;51.250;-1.118;2024-03-08T05:26:42;21.58;;;16.63;;
70667;SDS011;58242;51.250;-1.118;2024-03-08T05:29:08;23.02;;;17.33;;
70667;SDS011;58242;51.250;-1.118;2024-03-08T05:31:47;28.80;;;18.63;;
70667;SDS011;58242;51.250;-1.118;2024-03-08T05:34:14;24.38;;;17.60;;
70667;SDS011;58242;51.250;-1.118;2024-03-08T05:36:40;27.45;;;18.70;;
70667;SDS011;58242;51.250;-1.118;2024-03-08T05:39:08;29.20;;;21.35;;
70667;SDS011;58242;51.250;-1.118;2024-03-08T05:41:33;28.48;;;20.70;;
70667;SDS011;58242;51.250;-1.118;2024-03-08T05:43:59;26.95;;;19.15;;
70667;SDS011;58242;51.250;-1.118;2024-03-08T05:46:24;28.88;;;20.75;;
70667;SDS011;58242;51.250;-1.118;2024-03-08T05:48:50;27.92;;;18.52;;
70667;SDS011;58242;51.250;-1.118;2024-03-08T05:51:15;24.25;;;17.27;;
70667;SDS011;58242;51.250;-1.118;2024-03-08T05:53:41;24.20;;;17.95;;
70667;SDS011;58242;51.250;-1.118;2024-03-08T05:56:06;28.65;;;19.83;;
70667;SDS011;58242;51.250;-1.118;2024-03-08T05:58:31;27.52;;;20.17;;
70667;SDS011;58242;51.250;-1.118;2024-03-08T06:00:57;29.27;;;20.33;;
70667;SDS011;58242;51.250;-1.118;2024-03-08T06:03:22;33.05;;;22.17;;
70667;SDS011;58242;51.250;-1.118;2024-03-08T06:05:48;31.20;;;20.90;;
70667;SDS011;58242;51.250;-1.118;2024-03-08T06:08:14;27.63;;;18.67;;
70667;SDS011;58242;51.250;-1.118;2024-03-08T06:10:39;34.38;;;24.38;;
70667;SDS011;58242;51.250;-1.118;2024-03-08T06:13:05;31.38;;;22.85;;
70667;SDS011;58242;51.250;-1.118;2024-03-08T06:15:31;31.05;;;21.55;;
70667;SDS011;58242;51.250;-1.118;2024-03-08T06:17:57;27.95;;;20.40;;
70667;SDS011;58242;51.250;-1.118;2024-03-08T06:20:22;32.13;;;22.40;;
70667;SDS011;58242;51.250;-1.118;2024-03-08T06:22:51;32.03;;;21.73;;
70667;SDS011;58242;51.250;-1.118;2024-03-08T06:25:16;28.88;;;20.40;;
70667;SDS011;58242;51.250;-1.118;2024-03-08T06:27:42;31.95;;;22.55;;
70667;SDS011;58242;51.250;-1.118;2024-03-08T06:30:08;33.13;;;23.67;;
70667;SDS011;58242;51.250;-1.118;2024-03-08T06:32:35;33.80;;;22.92;;
70667;SDS011;58242;51.250;-1.118;2024-03-08T06:35:04;40.75;;;26.45;;
70667;SDS011;58242;51.250;-1.118;2024-03-08T06:37:34;38.42;;;26.27;;
70667;SDS011;58242;51.250;-1.118;2024-03-08T06:39:59;36.50;;;24.27;;
70667;SDS011;58242;51.250;-1.118;2024-03-08T06:42:26;30.35;;;21.67;;
70667;SDS011;58242;51.250;-1.118;2024-03-08T06:44:57;34.20;;;24.08;;
70667;SDS011;58242;51.250;-1.118;2024-03-08T06:47:29;37.95;;;22.20;;
70667;SDS011;58242;51.250;-1.118;2024-03-08T06:49:54;35.60;;;23.92;;
70667;SDS011;58242;51.250;-1.118;2024-03-08T06:52:20;28.20;;;20.17;;
70667;SDS011;58242;51.250;-1.118;2024-03-08T06:54:45;34.10;;;23.65;;
70667;SDS011;58242;51.250;-1.118;2024-03-08T06:57:10;28.85;;;20.58;;
70667;SDS011;58242;51.250;-1.118;2024-03-08T06:59:36;25.85;;;19.20;;
70667;SDS011;58242;51.250;-1.118;2024-03-08T07:02:04;27.60;;;19.65;;
70667;SDS011;58242;51.250;-1.118;2024-03-08T07:04:29;27.33;;;20.07;;
70667;SDS011;58242;51.250;-1.118;2024-03-08T07:06:58;26.30;;;18.98;;
70667;SDS011;58242;51.250;-1.118;2024-03-08T07:09:26;31.75;;;21.30;;
70667;SDS011;58242;51.250;-1.118;2024-03-08T07:11:52;25.05;;;18.38;;
70667;SDS011;58242;51.250;-1.118;2024-03-08T07:14:21;26.40;;;19.50;;
70667;SDS011;58242;51.250;-1.118;2024-03-08T07:16:49;27.95;;;19.35;;
70667;SDS011;58242;51.250;-1.118;2024-03-08T07:19:16;26.92;;;19.38;;
70667;SDS011;58242;51.250;-1.118;2024-03-08T07:21:42;27.00;;;18.30;;
70667;SDS011;58242;51.250;-1.118;2024-03-08T07:24:09;26.80;;;19.25;;
70667;SDS011;58242;51.250;-1.118;2024-03-08T07:26:49;28.88;;;20.10;;
70667;SDS011;58242;51.250;-1.118;2024-03-08T07:29:17;30.48;;;22.35;;
70667;SDS011;58242;51.250;-1.118;2024-03-08T07:31:42;28.85;;;20.88;;
70667;SDS011;58242;51.250;-1.118;2024-03-08T07:34:20;31.25;;;22.00;;
70667;SDS011;58242;51.250;-1.118;2024-03-08T07:36:46;29.98;;;20.45;;
70667;SDS011;58242;51.250;-1.118;2024-03-08T07:39:11;27.90;;;19.83;;
70667;SDS011;58242;51.250;-1.118;2024-03-08T07:41:37;34.45;;;22.10;;
70667;SDS011;58242;51.250;-1.118;2024-03-08T07:44:05;30.45;;;21.23;;
70667;SDS011;58242;51.250;-1.118;2024-03-08T07:46:31;30.08;;;21.52;;
70667;SDS011;58242;51.250;-1.118;2024-03-08T07:48:59;32.25;;;22.58;;
70667;SDS011;58242;51.250;-1.118;2024-03-08T07:51:24;27.75;;;19.08;;
70667;SDS011;58242;51.250;-1.118;2024-03-08T07:53:49;29.33;;;20.80;;
70667;SDS011;58242;51.250;-1.118;2024-03-08T07:56:15;31.58;;;20.20;;
70667;SDS011;58242;51.250;-1.118;2024-03-08T07:58:43;28.02;;;20.60;;
70667;SDS011;58242;51.250;-1.118;2024-03-08T08:01:15;28.60;;;19.92;;
70667;SDS011;58242;51.250;-1.118;2024-03-08T08:03:41;22.25;;;18.15;;
70667;SDS011;58242;51.250;-1.118;2024-03-08T08:06:07;33.53;;;22.55;;
70667;SDS011;58242;51.250;-1.118;2024-03-08T08:08:32;30.80;;;22.05;;
70667;SDS011;58242;51.250;-1.118;2024-03-08T08:10:57;29.45;;;21.73;;
70667;SDS011;58242;51.250;-1.118;2024-03-08T08:13:23;27.83;;;19.88;;
70667;SDS011;58242;51.250;-1.118;2024-03-08T08:15:48;34.25;;;24.20;;
70667;SDS011;58242;51.250;-1.118;2024-03-08T08:18:14;34.42;;;23.02;;
70667;SDS011;58242;51.250;-1.118;2024-03-08T08:20:39;27.63;;;21.98;;
70667;SDS011;58242;51.250;-1.118;2024-03-08T08:23:04;27.05;;;20.50;;
70667;SDS011;58242;51.250;-1.118;2024-03-08T08:25:31;25.65;;;20.92;;
70667;SDS011;58242;51.250;-1.118;2024-03-08T08:27:59;28.77;;;20.98;;
70667;SDS011;58242;51.250;-1.118;2024-03-08T08:30:24;31.38;;;24.00;;
70667;SDS011;58242;51.250;-1.118;2024-03-08T08:32:50;28.67;;;21.75;;
70667;SDS011;58242;51.250;-1.118;2024-03-08T08:35:15;27.70;;;21.98;;
70667;SDS011;58242;51.250;-1.118;2024-03-08T08:37:41;25.95;;;20.65;;
70667;SDS011;58242;51.250;-1.118;2024-03-08T08:40:07;23.88;;;19.23;;
70667;SDS011;58242;51.250;-1.118;2024-03-08T08:42:39;26.23;;;20.50;;
70667;SDS011;58242;51.250;-1.118;2024-03-08T08:45:05;22.30;;;19.30;;
70667;SDS011;58242;51.250;-1.118;2024-03-08T08:47:33;24.95;;;19.50;;
70667;SDS011;58242;51.250;-1.118;2024-03-08T08:50:02;23.35;;;19.63;;
70667;SDS011;58242;51.250;-1.118;2024-03-08T08:52:30;28.77;;;22.00;;
70667;SDS011;58242;51.250;-1.118;2024-03-08T08:54:56;27.63;;;21.17;;
70667;SDS011;58242;51.250;-1.118;2024-03-08T08:57:22;23.27;;;19.25;;
70667;SDS011;58242;51.250;-1.118;2024-03-08T08:59:47;23.83;;;18.60;;
70667;SDS011;58242;51.250;-1.118;2024-03-08T09:02:12;25.63;;;20.42;;
70667;SDS011;58242;51.250;-1.118;2024-03-08T09:04:41;26.60;;;21.90;;
70667;SDS011;58242;51.250;-1.118;2024-03-08T09:07:07;22.73;;;18.88;;
70667;SDS011;58242;51.250;-1.118;2024-03-08T09:09:32;27.40;;;21.75;;
70667;SDS011;58242;51.250;-1.118;2024-03-08T09:11:58;27.50;;;21.83;;
70667;SDS011;58242;51.250;-1.118;2024-03-08T09:14:23;24.92;;;20.05;;
70667;SDS011;58242;51.250;-1.118;2024-03-08T09:16:51;22.83;;;19.73;;
70667;SDS011;58242;51.250;-1.118;2024-03-08T09:19:16;19.95;;;15.70;;
70667;SDS011;58242;51.250;-1.118;2024-03-08T09:21:42;22.38;;;18.00;;
70667;SDS011;58242;51.250;-1.118;2024-03-08T09:24:07;24.67;;;20.55;;
70667;SDS011;58242;51.250;-1.118;2024-03-08T09:26:33;24.67;;;19.48;;
70667;SDS011;58242;51.250;-1.118;2024-03-08T09:28:58;20.63;;;17.17;;
70667;SDS011;58242;51.250;-1.118;2024-03-08T09:31:24;24.13;;;19.50;;
70667;SDS011;58242;51.250;-1.118;2024-03-08T09:33:50;23.55;;;20.10;;
70667;SDS011;58242;51.250;-1.118;2024-03-08T09:36:16;26.83;;;20.25;;
70667;SDS011;58242;51.250;-1.118;2024-03-08T09:38:42;28.00;;;21.92;;
70667;SDS011;58242;51.250;-1.118;2024-03-08T09:41:07;26.70;;;21.50;;
70667;SDS011;58242;51.250;-1.118;2024-03-08T09:43:34;24.67;;;19.63;;
70667;SDS011;58242;51.250;-1.118;2024-03-08T09:46:00;25.55;;;20.35;;
70667;SDS011;58242;51.250;-1.118;2024-03-08T09:48:25;26.52;;;20.00;;
70667;SDS011;58242;51.250;-1.118;2024-03-08T09:50:51;27.83;;;19.95;;
70667;SDS011;58242;51.250;-1.118;2024-03-08T09:53:16;26.27;;;20.92;;
70667;SDS011;58242;51.250;-1.118;2024-03-08T09:55:42;22.65;;;19.52;;
70667;SDS011;58242;51.250;-1.118;2024-03-08T09:58:11;21.75;;;19.35;;
70667;SDS011;58242;51.250;-1.118;2024-03-08T10:00:55;24.83;;;19.45;;
70667;SDS011;58242;51.250;-1.118;2024-03-08T10:03:26;29.67;;;20.35;;
70667;SDS011;58242;51.250;-1.118;2024-03-08T10:05:52;24.80;;;20.40;;
70667;SDS011;58242;51.250;-1.118;2024-03-08T10:08:21;23.40;;;19.67;;
70667;SDS011;58242;51.250;-1.118;2024-03-08T10:10:47;22.95;;;18.98;;
70667;SDS011;58242;51.250;-1.118;2024-03-08T10:13:12;20.77;;;17.25;;
70667;SDS011;58242;51.250;-1.118;2024-03-08T10:15:39;21.98;;;17.50;;
70667;SDS011;58242;51.250;-1.118;2024-03-08T10:18:05;24.23;;;19.17;;
70667;SDS011;58242;51.250;-1.118;2024-03-08T10:20:31;25.98;;;20.92;;
70667;SDS011;58242;51.250;-1.118;2024-03-08T10:23:00;24.40;;;20.80;;
70667;SDS011;58242;51.250;-1.118;2024-03-08T10:25:28;23.13;;;19.02;;
70667;SDS011;58242;51.250;-1.118;2024-03-08T10:27:55;22.08;;;18.65;;
70667;SDS011;58242;51.250;-1.118;2024-03-08T10:30:20;21.90;;;19.50;;
70667;SDS011;58242;51.250;-1.118;2024-03-08T10:32:46;19.48;;;16.73;;
70667;SDS011;58242;51.250;-1.118;2024-03-08T10:35:13;21.98;;;17.42;;
70667;SDS011;58242;51.250;-1.118;2024-03-08T10:37:45;18.50;;;16.52;;
70667;SDS011;58242;51.250;-1.118;2024-03-08T10:40:17;18.67;;;15.30;;
70667;SDS011;58242;51.250;-1.118;2024-03-08T10:42:57;22.38;;;16.90;;
70667;SDS011;58242;51.250;-1.118;2024-03-08T10:45:36;22.33;;;17.60;;
70667;SDS011;58242;51.250;-1.118;2024-03-08T10:48:17;20.13;;;16.90;;
70667;SDS011;58242;51.250;-1.118;2024-03-08T10:51:04;19.73;;;17.63;;
70667;SDS011;58242;51.250;-1.118;2024-03-08T10:53:30;21.00;;;16.95;;
70667;SDS011;58242;51.250;-1.118;2024-03-08T10:55:56;19.42;;;15.65;;
70667;SDS011;58242;51.250;-1.118;2024-03-08T10:58:22;17.55;;;15.35;;
70667;SDS011;58242;51.250;-1.118;2024-03-08T11:00:51;18.15;;;14.00;;
70667;SDS011;58242;51.250;-1.118;2024-03-08T11:04:01;17.77;;;15.75;;
70667;SDS011;58242;51.250;-1.118;2024-03-08T11:06:13;16.50;;;14.18;;
70667;SDS011;58242;51.250;-1.118;2024-03-08T11:08:41;16.67;;;14.68;;
70667;SDS011;58242;51.250;-1.118;2024-03-08T11:11:22;16.05;;;14.27;;
70667;SDS011;58242;51.250;-1.118;2024-03-08T11:14:03;16.15;;;13.75;;
70667;SDS011;58242;51.250;-1.118;2024-03-08T11:19:05;15.20;;;13.27;;
70667;SDS011;58242;51.250;-1.118;2024-03-08T11:21:56;15.30;;;13.70;;
70667;SDS011;58242;51.250;-1.118;2024-03-08T11:24:23;17.75;;;13.73;;
70667;SDS011;58242;51.250;-1.118;2024-03-08T11:26:48;15.23;;;13.30;;
70667;SDS011;58242;51.250;-1.118;2024-03-08T11:34:41;11.55;;;10.45;;
70667;SDS011;58242;51.250;-1.118;2024-03-08T11:37:13;16.23;;;12.95;;
70667;SDS011;58242;51.250;-1.118;2024-03-08T11:39:41;14.02;;;12.63;;
70667;SDS011;58242;51.250;-1.118;2024-03-08T11:42:15;14.70;;;11.60;;
70667;SDS011;58242;51.250;-1.118;2024-03-08T11:44:42;12.00;;;10.20;;
70667;SDS011;58242;51.250;-1.118;2024-03-08T11:47:09;13.57;;;11.90;;
70667;SDS011;58242;51.250;-1.118;2024-03-08T11:49:36;14.48;;;13.07;;
70667;SDS011;58242;51.250;-1.118;2024-03-08T11:52:01;14.00;;;12.52;;
70667;SDS011;58242;51.250;-1.118;2024-03-08T11:54:28;13.70;;;12.18;;
70667;SDS011;58242;51.250;-1.118;2024-03-08T11:56:55;11.63;;;9.32;;
70667;SDS011;58242;51.250;-1.118;2024-03-08T11:59:25;13.38;;;12.07;;
70667;SDS011;58242;51.250;-1.118;2024-03-08T12:02:01;14.20;;;12.70;;
70667;SDS011;58242;51.250;-1.118;2024-03-08T12:04:28;13.10;;;10.68;;
70667;SDS011;58242;51.250;-1.118;2024-03-08T12:06:53;14.93;;;12.57;;
70667;SDS011;58242;51.250;-1.118;2024-03-08T12:09:19;14.13;;;11.73;;
70667;SDS011;58242;51.250;-1.118;2024-03-08T12:11:47;12.40;;;10.00;;
70667;SDS011;58242;51.250;-1.118;2024-03-08T12:14:13;13.02;;;11.15;;
70667;SDS011;58242;51.250;-1.118;2024-03-08T12:16:39;12.60;;;11.35;;
70667;SDS011;58242;51.250;-1.118;2024-03-08T12:19:04;13.60;;;12.30;;
70667;SDS011;58242;51.250;-1.118;2024-03-08T12:21:31;14.98;;;13.23;;
70667;SDS011;58242;51.250;-1.118;2024-03-08T12:24:07;15.02;;;12.52;;
70667;SDS011;58242;51.250;-1.118;2024-03-08T12:26:35;12.75;;;10.82;;
70667;SDS011;58242;51.250;-1.118;2024-03-08T12:31:53;12.75;;;10.57;;
70667;SDS011;58242;51.250;-1.118;2024-03-08T12:34:20;12.38;;;10.32;;
70667;SDS011;58242;51.250;-1.118;2024-03-08T12:36:48;11.77;;;10.57;;
70667;SDS011;58242;51.250;-1.118;2024-03-08T12:39:17;10.63;;;9.52;;
70667;SDS011;58242;51.250;-1.118;2024-03-08T12:41:47;11.68;;;10.52;;
70667;SDS011;58242;51.250;-1.118;2024-03-08T12:44:12;9.65;;;8.73;;
70667;SDS011;58242;51.250;-1.118;2024-03-08T12:46:38;12.05;;;10.75;;
70667;SDS011;58242;51.250;-1.118;2024-03-08T12:49:09;13.63;;;11.68;;
70667;SDS011;58242;51.250;-1.118;2024-03-08T12:51:37;13.07;;;11.20;;
70667;SDS011;58242;51.250;-1.118;2024-03-08T12:54:06;11.55;;;9.90;;
70667;SDS011;58242;51.250;-1.118;2024-03-08T12:56:32;12.25;;;10.88;;
70667;SDS011;58242;51.250;-1.118;2024-03-08T12:59:01;9.60;;;8.65;;
70667;SDS011;58242;51.250;-1.118;2024-03-08T13:01:27;8.80;;;7.90;;
70667;SDS011;58242;51.250;-1.118;2024-03-08T13:03:53;10.35;;;9.40;;
70667;SDS011;58242;51.250;-1.118;2024-03-08T13:06:20;10.15;;;9.13;;
70667;SDS011;58242;51.250;-1.118;2024-03-08T13:08:49;9.52;;;8.63;;
70667;SDS011;58242;51.250;-1.118;2024-03-08T13:11:16;7.63;;;7.03;;
70667;SDS011;58242;51.250;-1.118;2024-03-08T13:13:42;10.20;;;9.20;;
70667;SDS011;58242;51.250;-1.118;2024-03-08T13:16:08;12.23;;;11.00;;
70667;SDS011;58242;51.250;-1.118;2024-03-08T13:18:34;11.07;;;9.32;;
70667;SDS011;58242;51.250;-1.118;2024-03-08T13:21:02;12.20;;;11.10;;
70667;SDS011;58242;51.250;-1.118;2024-03-08T13:23:31;10.30;;;9.30;;
70667;SDS011;58242;51.250;-1.118;2024-03-08T13:25:58;10.07;;;8.95;;
70667;SDS011;58242;51.250;-1.118;2024-03-08T13:28:23;10.85;;;9.85;;
70667;SDS011;58242;51.250;-1.118;2024-03-08T13:30:54;10.18;;;9.18;;
70667;SDS011;58242;51.250;-1.118;2024-03-08T13:33:22;12.05;;;10.75;;
70667;SDS011;58242;51.250;-1.118;2024-03-08T13:35:48;12.38;;;10.38;;
70667;SDS011;58242;51.250;-1.118;2024-03-08T13:38:14;10.75;;;9.73;;
70667;SDS011;58242;51.250;-1.118;2024-03-08T13:40:40;10.15;;;9.15;;
70667;SDS011;58242;51.250;-1.118;2024-03-08T13:43:06;9.30;;;8.40;;
70667;SDS011;58242;51.250;-1.118;2024-03-08T13:45:33;9.40;;;8.60;;
70667;SDS011;58242;51.250;-1.118;2024-03-08T13:48:02;11.70;;;9.95;;
70667;SDS011;58242;51.250;-1.118;2024-03-08T13:50:29;12.85;;;11.57;;
70667;SDS011;58242;51.250;-1.118;2024-03-08T13:52:55;10.27;;;9.25;;
70667;SDS011;58242;51.250;-1.118;2024-03-08T13:55:21;12.00;;;10.80;;
70667;SDS011;58242;51.250;-1.118;2024-03-08T13:57:52;11.32;;;10.23;;
70667;SDS011;58242;51.250;-1.118;2024-03-08T14:00:18;10.68;;;9.68;;
70667;SDS011;58242;51.250;-1.118;2024-03-08T14:02:47;10.50;;;9.55;;
70667;SDS011;58242;51.250;-1.118;2024-03-08T14:05:13;10.48;;;9.15;;
70667;SDS011;58242;51.250;-1.118;2024-03-08T14:07:40;12.20;;;11.00;;
70667;SDS011;58242;51.250;-1.118;2024-03-08T14:10:05;11.13;;;10.02;;
70667;SDS011;58242;51.250;-1.118;2024-03-08T14:12:32;9.88;;;8.98;;
70667;SDS011;58242;51.250;-1.118;2024-03-08T14:14:58;11.70;;;10.48;;
70667;SDS011;58242;51.250;-1.118;2024-03-08T14:17:25;12.23;;;11.00;;
70667;SDS011;58242;51.250;-1.118;2024-03-08T14:19:52;11.90;;;10.70;;